This is the latest recevied weather packets stored in our database for station/object DG1UDO-13. If no packets are shown the sender has not sent any weather packets the latest 10 day(s).
| Time | Temp. | Humidity | Pressure | Rain* | Wind** | Luminosity | Snow |
|---|---|---|---|---|---|---|---|
| 1777876500 | 10° C | 95% | 1013.5 hPa | - | - | - | - |
| 1777874700 | 10° C | 96% | 1013.1 hPa | - | - | - | - |
| 1777872900 | 10° C | 95% | 1013 hPa | - | - | - | - |
| 1777871101 | 10.56° C | 94% | 1012.4 hPa | - | - | - | - |
| 1777869301 | 11.11° C | 96% | 1012.1 hPa | - | - | - | - |
| 1777867501 | 11.67° C | 95% | 1011.8 hPa | - | - | - | - |
| 1777865701 | 12.78° C | 94% | 1011.7 hPa | - | - | - | - |
| 1777863900 | 13.33° C | 96% | 1011.6 hPa | - | - | - | - |
| 1777862101 | 13.33° C | 96% | 1011.3 hPa | - | - | - | - |
| 1777860301 | 13.33° C | 97% | 1011 hPa | - | - | - | - |
| 1777858500 | 13.89° C | 96% | 1011.1 hPa | - | - | - | - |
| 1777856700 | 13.33° C | 96% | 1010.9 hPa | - | - | - | - |
| 1777854900 | 13.89° C | 96% | 1010.8 hPa | - | - | - | - |
| 1777853100 | 13.89° C | 94% | 1010.7 hPa | - | - | - | - |
| 1777851301 | 14.44° C | 93% | 1010.9 hPa | - | - | - | - |
| 1777849500 | 14.44° C | 92% | 1010.7 hPa | - | - | - | - |
| 1777847701 | 14.44° C | 93% | 1010.9 hPa | - | - | - | - |
| 1777845901 | 14.44° C | 93% | 1010.8 hPa | - | - | - | - |
| 1777844101 | 14.44° C | 92% | 1010.9 hPa | - | - | - | - |
| 1777842300 | 14.44° C | 94% | 1010.9 hPa | - | - | - | - |
| 1777840500 | 14.44° C | 95% | 1010.9 hPa | - | - | - | - |
| 1777838700 | 15° C | 93% | 1010.6 hPa | - | - | - | - |
| 1777836900 | 15.56° C | 91% | 1010.3 hPa | - | - | - | - |
| 1777835100 | 15.56° C | 92% | 1010.3 hPa | - | - | - | - |
| 1777833301 | 17.22° C | 84% | 1009.9 hPa | - | - | - | - |
* Rain since midnight (hover to see other rain measurements)
** Current wind speed in m/s (hover to see current wind gust speed)